sensor_id;sensor_type;location;lat;lon;timestamp;temperature;humidity
3017;DHT22;1518;52.408;13.060;2023-02-22T00:01:15;23.00;65.20
3017;DHT22;1518;52.408;13.060;2023-02-22T00:04:14;23.10;65.30
3017;DHT22;1518;52.408;13.060;2023-02-22T00:07:05;23.10;65.20
3017;DHT22;1518;52.408;13.060;2023-02-22T00:09:53;23.10;65.20
3017;DHT22;1518;52.408;13.060;2023-02-22T00:12:42;23.10;65.20
3017;DHT22;1518;52.408;13.060;2023-02-22T00:15:30;23.20;65.20
3017;DHT22;1518;52.408;13.060;2023-02-22T00:18:20;23.20;65.10
3017;DHT22;1518;52.408;13.060;2023-02-22T00:21:10;23.20;65.00
3017;DHT22;1518;52.408;13.060;2023-02-22T00:23:58;23.20;65.00
3017;DHT22;1518;52.408;13.060;2023-02-22T00:26:46;23.20;65.00
3017;DHT22;1518;52.408;13.060;2023-02-22T00:29:34;23.10;64.90
3017;DHT22;1518;52.408;13.060;2023-02-22T00:32:22;23.20;65.00
3017;DHT22;1518;52.408;13.060;2023-02-22T00:35:13;23.20;65.00
3017;DHT22;1518;52.408;13.060;2023-02-22T00:38:02;23.20;64.90
3017;DHT22;1518;52.408;13.060;2023-02-22T00:40:50;23.20;64.90
3017;DHT22;1518;52.408;13.060;2023-02-22T00:43:39;23.10;64.80
3017;DHT22;1518;52.408;13.060;2023-02-22T00:46:27;23.20;64.90
3017;DHT22;1518;52.408;13.060;2023-02-22T00:49:15;23.20;64.90
3017;DHT22;1518;52.408;13.060;2023-02-22T00:52:05;23.20;65.00
3017;DHT22;1518;52.408;13.060;2023-02-22T00:54:55;23.10;64.80
3017;DHT22;1518;52.408;13.060;2023-02-22T00:57:43;23.20;64.90
3017;DHT22;1518;52.408;13.060;2023-02-22T01:00:33;23.10;64.80
3017;DHT22;1518;52.408;13.060;2023-02-22T01:03:22;23.10;64.80
3017;DHT22;1518;52.408;13.060;2023-02-22T01:06:10;23.10;64.90
3017;DHT22;1518;52.408;13.060;2023-02-22T01:09:00;23.10;65.00
3017;DHT22;1518;52.408;13.060;2023-02-22T01:11:51;23.00;64.80
3017;DHT22;1518;52.408;13.060;2023-02-22T01:14:41;22.80;82.90
3017;DHT22;1518;52.408;13.060;2023-02-22T01:17:29;23.00;64.20
3017;DHT22;1518;52.408;13.060;2023-02-22T01:20:18;23.10;65.00
3017;DHT22;1518;52.408;13.060;2023-02-22T01:23:06;23.10;64.90
3017;DHT22;1518;52.408;13.060;2023-02-22T01:25:57;23.10;64.90
3017;DHT22;1518;52.408;13.060;2023-02-22T01:28:45;23.10;64.80
3017;DHT22;1518;52.408;13.060;2023-02-22T01:31:33;23.10;64.80
3017;DHT22;1518;52.408;13.060;2023-02-22T01:34:23;23.10;64.80
3017;DHT22;1518;52.408;13.060;2023-02-22T01:37:11;23.10;64.70
3017;DHT22;1518;52.408;13.060;2023-02-22T01:39:59;23.10;64.70
3017;DHT22;1518;52.408;13.060;2023-02-22T01:42:51;23.10;64.60
3017;DHT22;1518;52.408;13.060;2023-02-22T01:45:43;23.20;84.80
3017;DHT22;1518;52.408;13.060;2023-02-22T01:48:36;23.10;64.60
3017;DHT22;1518;52.408;13.060;2023-02-22T01:51:29;23.10;64.50
3017;DHT22;1518;52.408;13.060;2023-02-22T01:54:20;23.10;64.60
3017;DHT22;1518;52.408;13.060;2023-02-22T01:57:14;23.20;64.60
3017;DHT22;1518;52.408;13.060;2023-02-22T02:00:09;23.20;64.50
3017;DHT22;1518;52.408;13.060;2023-02-22T02:03:02;23.20;64.40
3017;DHT22;1518;52.408;13.060;2023-02-22T02:05:53;23.10;64.30
3017;DHT22;1518;52.408;13.060;2023-02-22T02:08:47;23.20;64.40
3017;DHT22;1518;52.408;13.060;2023-02-22T02:11:38;23.10;64.30
3017;DHT22;1518;52.408;13.060;2023-02-22T02:14:27;23.10;64.40
3017;DHT22;1518;52.408;13.060;2023-02-22T02:17:21;23.10;64.30
3017;DHT22;1518;52.408;13.060;2023-02-22T02:20:13;23.10;64.30
3017;DHT22;1518;52.408;13.060;2023-02-22T02:23:17;23.10;65.10
3017;DHT22;1518;52.408;13.060;2023-02-22T02:26:33;23.10;64.30
3017;DHT22;1518;52.408;13.060;2023-02-22T02:29:41;23.10;64.20
3017;DHT22;1518;52.408;13.060;2023-02-22T02:32:44;23.10;64.30
3017;DHT22;1518;52.408;13.060;2023-02-22T02:35:43;23.30;83.00
3017;DHT22;1518;52.408;13.060;2023-02-22T02:38:40;23.10;64.20
3017;DHT22;1518;52.408;13.060;2023-02-22T02:41:33;23.10;64.20
3017;DHT22;1518;52.408;13.060;2023-02-22T02:44:27;23.10;64.20
3017;DHT22;1518;52.408;13.060;2023-02-22T02:47:21;23.10;63.60
3017;DHT22;1518;52.408;13.060;2023-02-22T02:50:16;23.10;64.20
3017;DHT22;1518;52.408;13.060;2023-02-22T02:53:08;23.10;64.20
3017;DHT22;1518;52.408;13.060;2023-02-22T02:55:58;23.10;64.10
3017;DHT22;1518;52.408;13.060;2023-02-22T02:58:48;23.10;64.20
3017;DHT22;1518;52.408;13.060;2023-02-22T03:01:51;23.10;64.30
3017;DHT22;1518;52.408;13.060;2023-02-22T03:04:53;23.00;64.20
3017;DHT22;1518;52.408;13.060;2023-02-22T03:07:55;23.00;64.20
3017;DHT22;1518;52.408;13.060;2023-02-22T03:10:51;23.00;64.30
3017;DHT22;1518;52.408;13.060;2023-02-22T03:13:49;23.00;64.30
3017;DHT22;1518;52.408;13.060;2023-02-22T03:16:44;23.00;64.20
3017;DHT22;1518;52.408;13.060;2023-02-22T03:19:37;22.90;64.10
3017;DHT22;1518;52.408;13.060;2023-02-22T03:22:31;23.10;64.40
3017;DHT22;1518;52.408;13.060;2023-02-22T03:25:24;23.10;64.40
3017;DHT22;1518;52.408;13.060;2023-02-22T03:28:17;23.00;64.20
3017;DHT22;1518;52.408;13.060;2023-02-22T03:31:08;23.30;64.50
3017;DHT22;1518;52.408;13.060;2023-02-22T03:33:59;23.10;64.20
3017;DHT22;1518;52.408;13.060;2023-02-22T03:36:52;23.10;64.10
3017;DHT22;1518;52.408;13.060;2023-02-22T03:39:43;23.10;64.10
3017;DHT22;1518;52.408;13.060;2023-02-22T03:42:36;23.20;64.20
3017;DHT22;1518;52.408;13.060;2023-02-22T03:45:25;23.10;82.10
3017;DHT22;1518;52.408;13.060;2023-02-22T03:48:19;23.20;64.10
3017;DHT22;1518;52.408;13.060;2023-02-22T03:51:10;23.20;64.00
3017;DHT22;1518;52.408;13.060;2023-02-22T03:54:03;23.20;64.00
3017;DHT22;1518;52.408;13.060;2023-02-22T03:56:54;23.20;63.90
3017;DHT22;1518;52.408;13.060;2023-02-22T03:59:45;23.20;64.00
3017;DHT22;1518;52.408;13.060;2023-02-22T04:02:33;23.20;63.90
3017;DHT22;1518;52.408;13.060;2023-02-22T04:05:21;23.40;82.30
3017;DHT22;1518;52.408;13.060;2023-02-22T04:08:10;23.20;64.00
3017;DHT22;1518;52.408;13.060;2023-02-22T04:10:58;23.10;63.80
3017;DHT22;1518;52.408;13.060;2023-02-22T04:13:47;23.20;63.90
3017;DHT22;1518;52.408;13.060;2023-02-22T04:16:36;23.20;63.90
3017;DHT22;1518;52.408;13.060;2023-02-22T04:19:24;23.20;63.90
3017;DHT22;1518;52.408;13.060;2023-02-22T04:22:12;23.20;63.90
3017;DHT22;1518;52.408;13.060;2023-02-22T04:25:00;23.20;63.90
3017;DHT22;1518;52.408;13.060;2023-02-22T04:27:48;23.30;64.20
3017;DHT22;1518;52.408;13.060;2023-02-22T04:30:36;23.00;63.80
3017;DHT22;1518;52.408;13.060;2023-02-22T04:33:26;23.00;63.80
3017;DHT22;1518;52.408;13.060;2023-02-22T04:36:14;23.10;64.70
3017;DHT22;1518;52.408;13.060;2023-02-22T04:39:02;23.10;63.90
3017;DHT22;1518;52.408;13.060;2023-02-22T04:41:51;23.10;63.90
3017;DHT22;1518;52.408;13.060;2023-02-22T04:44:39;23.00;63.80
3017;DHT22;1518;52.408;13.060;2023-02-22T04:47:27;23.20;64.10
3017;DHT22;1518;52.408;13.060;2023-02-22T04:50:16;22.70;63.50
3017;DHT22;1518;52.408;13.060;2023-02-22T04:53:05;23.10;63.90
3017;DHT22;1518;52.408;13.060;2023-02-22T04:55:53;23.10;63.90
3017;DHT22;1518;52.408;13.060;2023-02-22T04:58:41;23.00;63.80
3017;DHT22;1518;52.408;13.060;2023-02-22T05:01:31;23.20;63.90
3017;DHT22;1518;52.408;13.060;2023-02-22T05:04:19;23.10;63.90
3017;DHT22;1518;52.408;13.060;2023-02-22T05:07:09;23.30;64.20
3017;DHT22;1518;52.408;13.060;2023-02-22T05:09:58;23.10;63.90
3017;DHT22;1518;52.408;13.060;2023-02-22T05:12:48;23.10;63.90
3017;DHT22;1518;52.408;13.060;2023-02-22T05:15:37;22.90;82.30
3017;DHT22;1518;52.408;13.060;2023-02-22T05:18:25;23.00;63.90
3017;DHT22;1518;52.408;13.060;2023-02-22T05:21:13;23.20;64.00
3017;DHT22;1518;52.408;13.060;2023-02-22T05:24:03;22.90;63.70
3017;DHT22;1518;52.408;13.060;2023-02-22T05:26:51;23.10;63.90
3017;DHT22;1518;52.408;13.060;2023-02-22T05:29:40;23.00;63.80
3017;DHT22;1518;52.408;13.060;2023-02-22T05:32:28;23.20;64.00
3017;DHT22;1518;52.408;13.060;2023-02-22T05:35:16;23.20;64.00
3017;DHT22;1518;52.408;13.060;2023-02-22T05:38:05;23.20;63.90
3017;DHT22;1518;52.408;13.060;2023-02-22T05:40:54;23.10;63.80
3017;DHT22;1518;52.408;13.060;2023-02-22T05:43:42;23.20;63.80
3017;DHT22;1518;52.408;13.060;2023-02-22T05:46:30;23.10;63.70
3017;DHT22;1518;52.408;13.060;2023-02-22T05:49:18;23.20;63.70
3017;DHT22;1518;52.408;13.060;2023-02-22T05:52:06;23.20;63.70
3017;DHT22;1518;52.408;13.060;2023-02-22T05:54:55;23.30;63.80
3017;DHT22;1518;52.408;13.060;2023-02-22T05:57:45;23.20;63.70
3017;DHT22;1518;52.408;13.060;2023-02-22T06:00:33;23.20;63.60
3017;DHT22;1518;52.408;13.060;2023-02-22T06:03:21;23.20;63.60
3017;DHT22;1518;52.408;13.060;2023-02-22T06:06:09;23.20;63.70
3017;DHT22;1518;52.408;13.060;2023-02-22T06:08:57;23.20;63.70
3017;DHT22;1518;52.408;13.060;2023-02-22T06:11:45;23.20;63.70
3017;DHT22;1518;52.408;13.060;2023-02-22T06:14:34;23.20;63.70
3017;DHT22;1518;52.408;13.060;2023-02-22T06:17:22;23.20;63.60
3017;DHT22;1518;52.408;13.060;2023-02-22T06:20:12;23.20;63.60
3017;DHT22;1518;52.408;13.060;2023-02-22T06:23:00;23.20;63.70
3017;DHT22;1518;52.408;13.060;2023-02-22T06:25:48;23.30;63.70
3017;DHT22;1518;52.408;13.060;2023-02-22T06:28:36;23.00;63.50
3017;DHT22;1518;52.408;13.060;2023-02-22T06:31:26;23.10;63.60
3017;DHT22;1518;52.408;13.060;2023-02-22T06:34:14;23.20;63.70
3017;DHT22;1518;52.408;13.060;2023-02-22T06:37:09;23.20;63.80
3017;DHT22;1518;52.408;13.060;2023-02-22T06:40:00;23.20;63.80
3017;DHT22;1518;52.408;13.060;2023-02-22T06:42:53;23.20;63.80
3017;DHT22;1518;52.408;13.060;2023-02-22T06:45:42;23.20;63.90
3017;DHT22;1518;52.408;13.060;2023-02-22T06:48:35;24.30;65.00
3017;DHT22;1518;52.408;13.060;2023-02-22T06:51:24;23.20;64.00
3017;DHT22;1518;52.408;13.060;2023-02-22T06:54:12;23.20;63.90
3017;DHT22;1518;52.408;13.060;2023-02-22T06:57:00;23.20;64.10
3017;DHT22;1518;52.408;13.060;2023-02-22T06:59:48;23.10;63.90
3017;DHT22;1518;52.408;13.060;2023-02-22T07:02:36;23.10;64.00
3017;DHT22;1518;52.408;13.060;2023-02-22T07:05:27;23.20;82.40
3017;DHT22;1518;52.408;13.060;2023-02-22T07:08:15;23.00;64.00
3017;DHT22;1518;52.408;13.060;2023-02-22T07:11:03;23.20;64.00
3017;DHT22;1518;52.408;13.060;2023-02-22T07:13:51;23.20;64.10
3017;DHT22;1518;52.408;13.060;2023-02-22T07:16:41;23.30;64.20
3017;DHT22;1518;52.408;13.060;2023-02-22T07:19:29;23.20;64.20
3017;DHT22;1518;52.408;13.060;2023-02-22T07:22:18;23.20;64.10
3017;DHT22;1518;52.408;13.060;2023-02-22T07:25:07;23.10;64.00
3017;DHT22;1518;52.408;13.060;2023-02-22T07:27:57;23.30;64.20
3017;DHT22;1518;52.408;13.060;2023-02-22T07:30:45;23.30;64.20
3017;DHT22;1518;52.408;13.060;2023-02-22T07:33:33;23.30;64.20
3017;DHT22;1518;52.408;13.060;2023-02-22T07:36:21;23.30;64.10
3017;DHT22;1518;52.408;13.060;2023-02-22T07:39:11;23.50;64.30
3017;DHT22;1518;52.408;13.060;2023-02-22T07:41:59;23.50;64.10
3017;DHT22;1518;52.408;13.060;2023-02-22T07:44:47;23.40;63.90
3017;DHT22;1518;52.408;13.060;2023-02-22T07:47:35;23.70;64.10
3017;DHT22;1518;52.408;13.060;2023-02-22T07:50:25;23.30;63.70
3017;DHT22;1518;52.408;13.060;2023-02-22T07:53:16;23.30;63.60
3017;DHT22;1518;52.408;13.060;2023-02-22T07:56:06;23.40;63.80
3017;DHT22;1518;52.408;13.060;2023-02-22T07:58:54;23.30;64.00
3017;DHT22;1518;52.408;13.060;2023-02-22T08:01:42;23.30;64.10
3017;DHT22;1518;52.408;13.060;2023-02-22T08:04:30;23.40;64.20
3017;DHT22;1518;52.408;13.060;2023-02-22T08:07:18;23.50;64.40
3017;DHT22;1518;52.408;13.060;2023-02-22T08:10:09;23.30;64.30
3017;DHT22;1518;52.408;13.060;2023-02-22T08:12:58;23.30;64.30
3017;DHT22;1518;52.408;13.060;2023-02-22T08:15:46;23.30;64.30
3017;DHT22;1518;52.408;13.060;2023-02-22T08:18:35;23.30;64.40
3017;DHT22;1518;52.408;13.060;2023-02-22T08:21:24;23.30;64.40
3017;DHT22;1518;52.408;13.060;2023-02-22T08:24:12;23.20;64.20
3017;DHT22;1518;52.408;13.060;2023-02-22T08:27:00;23.10;64.10
3017;DHT22;1518;52.408;13.060;2023-02-22T08:29:49;23.20;64.20
3017;DHT22;1518;52.408;13.060;2023-02-22T08:32:37;23.20;64.30
3017;DHT22;1518;52.408;13.060;2023-02-22T08:35:26;23.30;77.20
3017;DHT22;1518;52.408;13.060;2023-02-22T08:38:18;23.20;64.50
3017;DHT22;1518;52.408;13.060;2023-02-22T08:41:07;23.10;64.50
3017;DHT22;1518;52.408;13.060;2023-02-22T08:43:55;23.10;64.50
3017;DHT22;1518;52.408;13.060;2023-02-22T08:46:48;23.10;64.50
3017;DHT22;1518;52.408;13.060;2023-02-22T08:49:37;23.20;64.70
3017;DHT22;1518;52.408;13.060;2023-02-22T08:52:25;23.20;64.60
3017;DHT22;1518;52.408;13.060;2023-02-22T08:55:13;23.30;64.60
3017;DHT22;1518;52.408;13.060;2023-02-22T08:58:02;23.30;63.90
3017;DHT22;1518;52.408;13.060;2023-02-22T09:00:50;23.30;64.50
3017;DHT22;1518;52.408;13.060;2023-02-22T09:03:41;23.30;64.40
3017;DHT22;1518;52.408;13.060;2023-02-22T09:06:29;23.40;64.40
3017;DHT22;1518;52.408;13.060;2023-02-22T09:09:18;23.50;64.30
3017;DHT22;1518;52.408;13.060;2023-02-22T09:12:07;23.40;64.10
3017;DHT22;1518;52.408;13.060;2023-02-22T09:14:55;23.50;64.20
3017;DHT22;1518;52.408;13.060;2023-02-22T09:17:43;23.50;64.10
3017;DHT22;1518;52.408;13.060;2023-02-22T09:20:34;23.50;64.10
3017;DHT22;1518;52.408;13.060;2023-02-22T09:23:22;23.50;64.10
3017;DHT22;1518;52.408;13.060;2023-02-22T09:26:11;23.50;64.00
3017;DHT22;1518;52.408;13.060;2023-02-22T09:29:01;23.50;64.00
3017;DHT22;1518;52.408;13.060;2023-02-22T09:31:51;23.50;64.00
3017;DHT22;1518;52.408;13.060;2023-02-22T09:34:40;23.50;64.00
3017;DHT22;1518;52.408;13.060;2023-02-22T09:37:32;23.50;64.00
3017;DHT22;1518;52.408;13.060;2023-02-22T09:40:22;23.50;64.20
3017;DHT22;1518;52.408;13.060;2023-02-22T09:43:26;23.50;64.40
3017;DHT22;1518;52.408;13.060;2023-02-22T09:46:22;23.40;64.30
3017;DHT22;1518;52.408;13.060;2023-02-22T09:49:28;23.40;64.50
3017;DHT22;1518;52.408;13.060;2023-02-22T09:52:29;23.40;64.40
3017;DHT22;1518;52.408;13.060;2023-02-22T09:55:37;23.30;82.00
3017;DHT22;1518;52.408;13.060;2023-02-22T09:58:32;23.40;64.50
3017;DHT22;1518;52.408;13.060;2023-02-22T10:01:25;23.40;64.60
3017;DHT22;1518;52.408;13.060;2023-02-22T10:04:19;23.40;64.40
3017;DHT22;1518;52.408;13.060;2023-02-22T10:07:18;23.40;64.40
3017;DHT22;1518;52.408;13.060;2023-02-22T10:10:14;23.40;64.40
3017;DHT22;1518;52.408;13.060;2023-02-22T10:13:13;23.40;64.40
3017;DHT22;1518;52.408;13.060;2023-02-22T10:16:06;23.40;64.50
3017;DHT22;1518;52.408;13.060;2023-02-22T10:19:20;23.40;64.50
3017;DHT22;1518;52.408;13.060;2023-02-22T10:22:27;23.40;64.40
3017;DHT22;1518;52.408;13.060;2023-02-22T10:25:21;23.40;64.40
3017;DHT22;1518;52.408;13.060;2023-02-22T10:28:15;23.50;64.50
3017;DHT22;1518;52.408;13.060;2023-02-22T10:31:07;23.50;64.50
3017;DHT22;1518;52.408;13.060;2023-02-22T10:33:59;23.50;64.40
3017;DHT22;1518;52.408;13.060;2023-02-22T10:36:52;23.50;64.50
3017;DHT22;1518;52.408;13.060;2023-02-22T10:39:42;23.60;64.50
3017;DHT22;1518;52.408;13.060;2023-02-22T10:42:32;23.50;64.20
3017;DHT22;1518;52.408;13.060;2023-02-22T10:45:24;23.50;64.20
3017;DHT22;1518;52.408;13.060;2023-02-22T10:48:18;23.60;64.30
3017;DHT22;1518;52.408;13.060;2023-02-22T10:51:10;23.60;64.30
3017;DHT22;1518;52.408;13.060;2023-02-22T10:54:18;23.60;64.10
3017;DHT22;1518;52.408;13.060;2023-02-22T10:57:21;23.60;64.10
3017;DHT22;1518;52.408;13.060;2023-02-22T11:00:17;23.60;64.10
3017;DHT22;1518;52.408;13.060;2023-02-22T11:03:18;23.60;64.10
3017;DHT22;1518;52.408;13.060;2023-02-22T11:06:18;23.60;64.10
3017;DHT22;1518;52.408;13.060;2023-02-22T11:09:14;23.60;64.10
3017;DHT22;1518;52.408;13.060;2023-02-22T11:12:15;23.60;64.10
3017;DHT22;1518;52.408;13.060;2023-02-22T11:15:30;23.60;64.10
3017;DHT22;1518;52.408;13.060;2023-02-22T11:18:27;23.60;64.10
3017;DHT22;1518;52.408;13.060;2023-02-22T11:21:21;23.60;64.00
3017;DHT22;1518;52.408;13.060;2023-02-22T11:24:13;23.50;64.00
3017;DHT22;1518;52.408;13.060;2023-02-22T11:27:25;23.50;64.00
3017;DHT22;1518;52.408;13.060;2023-02-22T11:30:25;23.50;64.00
3017;DHT22;1518;52.408;13.060;2023-02-22T11:33:17;23.50;64.00
3017;DHT22;1518;52.408;13.060;2023-02-22T11:36:10;23.50;64.00
3017;DHT22;1518;52.408;13.060;2023-02-22T11:39:03;23.60;64.10
3017;DHT22;1518;52.408;13.060;2023-02-22T11:41:54;23.60;64.10
3017;DHT22;1518;52.408;13.060;2023-02-22T11:44:43;23.50;64.30
3017;DHT22;1518;52.408;13.060;2023-02-22T11:47:31;23.60;64.30
3017;DHT22;1518;52.408;13.060;2023-02-22T11:50:25;23.60;64.30
3017;DHT22;1518;52.408;13.060;2023-02-22T11:53:24;23.60;64.30
3017;DHT22;1518;52.408;13.060;2023-02-22T11:56:17;23.50;64.20
3017;DHT22;1518;52.408;13.060;2023-02-22T11:59:24;23.60;64.30
3017;DHT22;1518;52.408;13.060;2023-02-22T12:02:37;23.40;76.90
3017;DHT22;1518;52.408;13.060;2023-02-22T12:05:55;23.60;64.20
3017;DHT22;1518;52.408;13.060;2023-02-22T12:08:57;23.60;64.10
3017;DHT22;1518;52.408;13.060;2023-02-22T12:11:58;23.60;64.10
3017;DHT22;1518;52.408;13.060;2023-02-22T12:14:56;23.60;64.10
3017;DHT22;1518;52.408;13.060;2023-02-22T12:17:50;23.70;64.30
3017;DHT22;1518;52.408;13.060;2023-02-22T12:20:50;23.60;64.20
3017;DHT22;1518;52.408;13.060;2023-02-22T12:23:46;23.60;64.10
3017;DHT22;1518;52.408;13.060;2023-02-22T12:26:39;23.70;64.30
3017;DHT22;1518;52.408;13.060;2023-02-22T12:29:32;23.70;64.20
3017;DHT22;1518;52.408;13.060;2023-02-22T12:32:28;23.60;81.40
3017;DHT22;1518;52.408;13.060;2023-02-22T12:35:22;23.60;64.10
3017;DHT22;1518;52.408;13.060;2023-02-22T12:38:17;23.60;64.00
3017;DHT22;1518;52.408;13.060;2023-02-22T12:41:13;23.70;64.10
3017;DHT22;1518;52.408;13.060;2023-02-22T12:44:08;23.60;64.10
3017;DHT22;1518;52.408;13.060;2023-02-22T12:46:57;23.70;64.10
3017;DHT22;1518;52.408;13.060;2023-02-22T12:49:53;23.60;64.70
3017;DHT22;1518;52.408;13.060;2023-02-22T12:52:45;23.70;64.10
3017;DHT22;1518;52.408;13.060;2023-02-22T12:55:38;23.70;64.00
3017;DHT22;1518;52.408;13.060;2023-02-22T12:58:35;23.70;64.00
3017;DHT22;1518;52.408;13.060;2023-02-22T13:01:33;23.70;64.00
3017;DHT22;1518;52.408;13.060;2023-02-22T13:04:23;23.70;64.00
3017;DHT22;1518;52.408;13.060;2023-02-22T13:07:23;24.10;64.40
3017;DHT22;1518;52.408;13.060;2023-02-22T13:10:33;23.70;63.90
3017;DHT22;1518;52.408;13.060;2023-02-22T13:13:31;23.70;63.90
3017;DHT22;1518;52.408;13.060;2023-02-22T13:16:35;23.70;63.90
3017;DHT22;1518;52.408;13.060;2023-02-22T13:19:33;23.70;63.90
3017;DHT22;1518;52.408;13.060;2023-02-22T13:22:26;23.50;82.00
3017;DHT22;1518;52.408;13.060;2023-02-22T13:25:19;23.70;63.90
3017;DHT22;1518;52.408;13.060;2023-02-22T13:28:24;23.80;64.00
3017;DHT22;1518;52.408;13.060;2023-02-22T13:31:26;23.70;63.90
3017;DHT22;1518;52.408;13.060;2023-02-22T13:41:33;23.70;63.80
3017;DHT22;1518;52.408;13.060;2023-02-22T13:44:39;23.70;63.80
3017;DHT22;1518;52.408;13.060;2023-02-22T13:47:46;23.80;63.90
3017;DHT22;1518;52.408;13.060;2023-02-22T13:51:03;23.80;63.80
3017;DHT22;1518;52.408;13.060;2023-02-22T13:53:56;23.80;63.80
3017;DHT22;1518;52.408;13.060;2023-02-22T13:56:49;23.80;63.80
3017;DHT22;1518;52.408;13.060;2023-02-22T13:59:38;23.80;63.80
3017;DHT22;1518;52.408;13.060;2023-02-22T14:02:33;23.90;82.20
3017;DHT22;1518;52.408;13.060;2023-02-22T14:05:50;23.80;63.80
3017;DHT22;1518;52.408;13.060;2023-02-22T14:08:45;23.90;63.90
3017;DHT22;1518;52.408;13.060;2023-02-22T14:11:42;23.80;63.70
3017;DHT22;1518;52.408;13.060;2023-02-22T14:14:32;23.80;63.80
3017;DHT22;1518;52.408;13.060;2023-02-22T14:17:24;23.80;63.70
3017;DHT22;1518;52.408;13.060;2023-02-22T14:20:25;23.80;63.70
3017;DHT22;1518;52.408;13.060;2023-02-22T14:23:33;23.80;63.70
3017;DHT22;1518;52.408;13.060;2023-02-22T14:26:25;23.70;63.70
3017;DHT22;1518;52.408;13.060;2023-02-22T14:29:16;23.90;63.90
3017;DHT22;1518;52.408;13.060;2023-02-22T14:32:07;23.70;63.80
3017;DHT22;1518;52.408;13.060;2023-02-22T14:34:59;23.80;63.90
3017;DHT22;1518;52.408;13.060;2023-02-22T14:37:57;23.70;63.90
3017;DHT22;1518;52.408;13.060;2023-02-22T14:40:47;23.70;63.90
3017;DHT22;1518;52.408;13.060;2023-02-22T14:43:37;23.70;63.80
3017;DHT22;1518;52.408;13.060;2023-02-22T14:46:29;23.80;63.90
3017;DHT22;1518;52.408;13.060;2023-02-22T14:49:21;23.80;64.00
3017;DHT22;1518;52.408;13.060;2023-02-22T14:52:18;23.70;64.50
3017;DHT22;1518;52.408;13.060;2023-02-22T14:55:16;23.80;63.80
3017;DHT22;1518;52.408;13.060;2023-02-22T14:58:08;23.80;63.80
3017;DHT22;1518;52.408;13.060;2023-02-22T15:00:57;23.80;63.70
3017;DHT22;1518;52.408;13.060;2023-02-22T15:03:45;23.80;63.70
3017;DHT22;1518;52.408;13.060;2023-02-22T15:06:43;23.90;63.70
3017;DHT22;1518;52.408;13.060;2023-02-22T15:09:32;23.90;63.60
3017;DHT22;1518;52.408;13.060;2023-02-22T15:12:26;24.00;82.00
3017;DHT22;1518;52.408;13.060;2023-02-22T15:15:17;23.90;63.50
3017;DHT22;1518;52.408;13.060;2023-02-22T15:18:19;23.90;63.40
3017;DHT22;1518;52.408;13.060;2023-02-22T15:21:10;23.90;63.30
3017;DHT22;1518;52.408;13.060;2023-02-22T15:24:04;23.80;63.30
3017;DHT22;1518;52.408;13.060;2023-02-22T15:26:54;23.90;63.30
3017;DHT22;1518;52.408;13.060;2023-02-22T15:29:56;23.90;63.30
3017;DHT22;1518;52.408;13.060;2023-02-22T15:32:45;23.80;63.30
3017;DHT22;1518;52.408;13.060;2023-02-22T15:35:53;23.70;63.20
3017;DHT22;1518;52.408;13.060;2023-02-22T15:38:47;23.80;63.30
3017;DHT22;1518;52.408;13.060;2023-02-22T15:41:37;23.80;63.40
3017;DHT22;1518;52.408;13.060;2023-02-22T15:44:25;23.80;63.30
3017;DHT22;1518;52.408;13.060;2023-02-22T15:47:16;23.80;63.30
3017;DHT22;1518;52.408;13.060;2023-02-22T15:50:17;23.70;63.20
3017;DHT22;1518;52.408;13.060;2023-02-22T15:53:22;23.70;63.20
3017;DHT22;1518;52.408;13.060;2023-02-22T15:56:14;23.70;63.30
3017;DHT22;1518;52.408;13.060;2023-02-22T15:59:09;23.60;63.10
3017;DHT22;1518;52.408;13.060;2023-02-22T16:01:59;23.60;63.30
3017;DHT22;1518;52.408;13.060;2023-02-22T16:04:47;23.40;63.10
3017;DHT22;1518;52.408;13.060;2023-02-22T16:07:48;23.60;63.40
3017;DHT22;1518;52.408;13.060;2023-02-22T16:10:37;23.40;63.30
3017;DHT22;1518;52.408;13.060;2023-02-22T16:13:28;23.40;63.40
3017;DHT22;1518;52.408;13.060;2023-02-22T16:16:27;23.30;63.40
3017;DHT22;1518;52.408;13.060;2023-02-22T16:19:33;23.20;63.40
3017;DHT22;1518;52.408;13.060;2023-02-22T16:22:27;23.30;78.00
3017;DHT22;1518;52.408;13.060;2023-02-22T16:25:24;23.00;63.50
3017;DHT22;1518;52.408;13.060;2023-02-22T16:28:25;23.00;63.50
3017;DHT22;1518;52.408;13.060;2023-02-22T16:31:13;22.90;63.40
3017;DHT22;1518;52.408;13.060;2023-02-22T16:34:05;22.90;63.50
3017;DHT22;1518;52.408;13.060;2023-02-22T16:36:55;22.90;63.50
3017;DHT22;1518;52.408;13.060;2023-02-22T16:39:44;22.80;63.60
3017;DHT22;1518;52.408;13.060;2023-02-22T16:42:32;22.80;63.20
3017;DHT22;1518;52.408;13.060;2023-02-22T16:45:21;22.70;63.10
3017;DHT22;1518;52.408;13.060;2023-02-22T16:48:13;22.70;63.30
3017;DHT22;1518;52.408;13.060;2023-02-22T16:51:07;22.70;63.30
3017;DHT22;1518;52.408;13.060;2023-02-22T16:53:56;22.50;63.20
3017;DHT22;1518;52.408;13.060;2023-02-22T16:56:44;22.40;63.40
3017;DHT22;1518;52.408;13.060;2023-02-22T16:59:36;22.40;63.50
3017;DHT22;1518;52.408;13.060;2023-02-22T17:02:25;22.40;82.30
3017;DHT22;1518;52.408;13.060;2023-02-22T17:05:14;22.20;63.50
3017;DHT22;1518;52.408;13.060;2023-02-22T17:08:04;22.20;63.60
3017;DHT22;1518;52.408;13.060;2023-02-22T17:10:53;22.10;63.90
3017;DHT22;1518;52.408;13.060;2023-02-22T17:13:43;22.00;63.90
3017;DHT22;1518;52.408;13.060;2023-02-22T17:16:31;21.60;63.70
3017;DHT22;1518;52.408;13.060;2023-02-22T17:19:21;21.90;64.20
3017;DHT22;1518;52.408;13.060;2023-02-22T17:22:16;21.70;64.10
3017;DHT22;1518;52.408;13.060;2023-02-22T17:25:18;21.70;64.40
3017;DHT22;1518;52.408;13.060;2023-02-22T17:28:07;21.50;64.20
3017;DHT22;1518;52.408;13.060;2023-02-22T17:30:56;21.60;64.60
3017;DHT22;1518;52.408;13.060;2023-02-22T17:33:47;21.40;64.50
3017;DHT22;1518;52.408;13.060;2023-02-22T17:36:37;21.60;64.80
3017;DHT22;1518;52.408;13.060;2023-02-22T17:39:25;21.30;64.60
3017;DHT22;1518;52.408;13.060;2023-02-22T17:42:15;21.30;64.90
3017;DHT22;1518;52.408;13.060;2023-02-22T17:45:12;21.20;64.80
3017;DHT22;1518;52.408;13.060;2023-02-22T17:48:06;21.10;64.80
3017;DHT22;1518;52.408;13.060;2023-02-22T17:50:54;21.10;65.10
3017;DHT22;1518;52.408;13.060;2023-02-22T17:53:42;21.00;65.20
3017;DHT22;1518;52.408;13.060;2023-02-22T17:56:30;21.00;65.10
3017;DHT22;1518;52.408;13.060;2023-02-22T17:59:20;20.60;64.90
3017;DHT22;1518;52.408;13.060;2023-02-22T18:02:08;20.70;65.00
3017;DHT22;1518;52.408;13.060;2023-02-22T18:04:56;21.10;65.70
3017;DHT22;1518;52.408;13.060;2023-02-22T18:07:45;20.80;65.30
3017;DHT22;1518;52.408;13.060;2023-02-22T18:10:33;20.70;65.50
3017;DHT22;1518;52.408;13.060;2023-02-22T18:13:23;20.60;65.40
3017;DHT22;1518;52.408;13.060;2023-02-22T18:16:12;20.50;65.70
3017;DHT22;1518;52.408;13.060;2023-02-22T18:19:02;20.60;65.80
3017;DHT22;1518;52.408;13.060;2023-02-22T18:21:50;20.40;65.60
3017;DHT22;1518;52.408;13.060;2023-02-22T18:24:38;20.30;65.70
3017;DHT22;1518;52.408;13.060;2023-02-22T18:27:26;20.20;65.80
3017;DHT22;1518;52.408;13.060;2023-02-22T18:30:15;20.50;66.20
3017;DHT22;1518;52.408;13.060;2023-02-22T18:33:05;20.30;66.10